Time;durP1;ratioP1;P1;durP2;ratioP2;P2;SDS_P1;SDS_P2;PMS_P1;PMS_P2;Temp;Humidity;BMP_temperature;BMP_pressure;BME280_temperature;BME280_humidity;BME280_pressure;Samples;Min_cycle;Max_cycle;Signal;HPM_P1;HPM_P2
2022/03/02 00:02:16;;;;;;;12.60;8.93;;;4.10;63.50;;;;;;5035674;28;20452;-47
2022/03/02 00:04:43;;;;;;;15.77;10.00;;;4.00;63.70;;;;;;5021454;28;20511;-47
2022/03/02 00:07:09;;;;;;;12.37;9.07;;;4.00;63.80;;;;;;5033230;28;20570;-47
2022/03/02 00:09:37;;;;;;;10.57;9.17;;;4.00;63.70;;;;;;5036872;28;20539;-47
2022/03/02 00:12:04;;;;;;;11.73;8.83;;;4.00;63.50;;;;;;5033229;28;20479;-47
2022/03/02 00:14:31;;;;;;;10.97;8.53;;;4.00;63.40;;;;;;5025506;28;20475;-47
2022/03/02 00:16:58;;;;;;;15.30;10.10;;;3.90;63.40;;;;;;5040694;28;20451;-48
2022/03/02 00:19:25;;;;;;;13.00;9.13;;;3.80;63.50;;;;;;5037087;28;20529;-47
2022/03/02 00:21:52;;;;;;;15.43;10.50;;;3.80;63.60;;;;;;5033823;28;20534;-47
2022/03/02 00:24:20;;;;;;;16.80;8.73;;;3.80;63.90;;;;;;5033036;28;20475;-47
2022/03/02 00:26:47;;;;;;;14.23;9.23;;;3.80;64.00;;;;;;5022962;28;20475;-47
2022/03/02 00:29:14;;;;;;;12.43;10.03;;;3.70;64.10;;;;;;5049124;28;20507;-47
2022/03/02 00:31:40;;;;;;;11.70;10.30;;;3.70;64.20;;;;;;5032826;28;20814;-47
2022/03/02 00:34:07;;;;;;;13.60;9.67;;;3.60;64.50;;;;;;5033743;28;20535;-47
2022/03/02 00:36:34;;;;;;;14.00;10.03;;;3.60;64.60;;;;;;5033423;28;20943;-47
2022/03/02 00:39:01;;;;;;;14.40;9.67;;;3.50;64.70;;;;;;5035092;28;20455;-47
2022/03/02 00:41:27;;;;;;;13.93;10.00;;;3.50;64.70;;;;;;5034454;28;21001;-46
2022/03/02 00:43:55;;;;;;;11.23;8.80;;;3.40;64.90;;;;;;5018103;28;20459;-47
2022/03/02 00:46:29;;;;;;;12.13;10.47;;;3.40;65.10;;;;;;5036675;28;20467;-47
2022/03/02 00:48:57;;;;;;;12.53;9.00;;;3.40;65.60;;;;;;5033754;28;20459;-46
2022/03/02 00:51:25;;;;;;;9.80;8.80;;;3.40;65.70;;;;;;5035140;28;20459;-47
2022/03/02 00:53:53;;;;;;;14.23;9.30;;;3.30;65.80;;;;;;5035714;28;20463;-47
2022/03/02 00:56:21;;;;;;;12.13;9.50;;;3.30;66.10;;;;;;5017960;28;20558;-47
2022/03/02 00:58:48;;;;;;;11.50;8.53;;;3.30;66.20;;;;;;5039286;28;20456;-47
2022/03/02 01:01:16;;;;;;;14.97;11.03;;;3.30;66.40;;;;;;5032948;28;20514;-47
2022/03/02 01:03:43;;;;;;;14.60;9.80;;;3.20;66.30;;;;;;5021304;28;20463;-46
2022/03/02 01:06:12;;;;;;;14.17;9.80;;;3.20;66.50;;;;;;5034133;28;20998;-47
2022/03/02 01:08:39;;;;;;;11.33;9.30;;;3.20;66.50;;;;;;5034074;28;21026;-46
2022/03/02 01:11:06;;;;;;;13.17;9.93;;;3.30;66.50;;;;;;5035848;28;20483;-47
2022/03/02 01:13:33;;;;;;;17.10;9.83;;;3.30;66.60;;;;;;5037345;28;20463;-47
2022/03/02 01:16:00;;;;;;;13.27;9.57;;;3.30;66.40;;;;;;5038944;28;20458;-47
2022/03/02 01:18:27;;;;;;;12.10;9.50;;;3.20;66.20;;;;;;5035945;28;20499;-47
2022/03/02 01:20:54;;;;;;;14.20;9.80;;;3.20;66.10;;;;;;5024990;28;20578;-47
2022/03/02 01:23:21;;;;;;;13.03;9.23;;;3.10;66.20;;;;;;5038425;28;21024;-47
2022/03/02 01:25:47;;;;;;;11.00;9.40;;;3.10;66.30;;;;;;5034234;28;20511;-47
2022/03/02 01:28:14;;;;;;;11.73;9.80;;;3.00;66.40;;;;;;5022541;28;20515;-46
2022/03/02 01:30:41;;;;;;;15.47;10.53;;;3.00;66.60;;;;;;5037371;28;21043;-46
2022/03/02 01:33:08;;;;;;;15.27;10.23;;;3.00;66.70;;;;;;5042617;28;20448;-47
2022/03/02 01:35:35;;;;;;;12.53;9.43;;;3.00;66.70;;;;;;5042619;28;20924;-47
2022/03/02 01:38:01;;;;;;;13.13;9.23;;;3.00;66.70;;;;;;5026285;28;20447;-46
2022/03/02 01:40:28;;;;;;;14.00;9.10;;;2.90;66.80;;;;;;5025921;28;20479;-47
2022/03/02 01:42:55;;;;;;;12.47;9.40;;;2.90;66.90;;;;;;5019543;28;20517;-46
2022/03/02 01:45:22;;;;;;;12.27;10.27;;;2.90;67.10;;;;;;5026012;28;20546;-46
2022/03/02 01:47:49;;;;;;;15.60;11.37;;;2.80;67.30;;;;;;5037472;28;20916;-47
2022/03/02 01:50:17;;;;;;;12.40;8.97;;;2.90;67.40;;;;;;5035597;28;20535;-47
2022/03/02 01:52:44;;;;;;;11.00;9.53;;;2.90;67.30;;;;;;5035592;28;20515;-47
2022/03/02 01:55:12;;;;;;;11.70;8.87;;;2.90;67.30;;;;;;5037275;28;20512;-47
2022/03/02 01:57:41;;;;;;;10.17;8.67;;;2.90;67.40;;;;;;5039362;28;20447;-46
2022/03/02 02:00:11;;;;;;;15.60;9.90;;;2.90;67.40;;;;;;5036305;28;20444;-47
2022/03/02 02:02:38;;;;;;;13.70;9.73;;;2.90;67.20;;;;;;5023504;28;20958;-47
2022/03/02 02:05:05;;;;;;;14.57;9.10;;;2.90;67.20;;;;;;5024527;28;20455;-47
2022/03/02 02:07:33;;;;;;;12.20;10.20;;;2.80;67.20;;;;;;5039450;28;20524;-46
2022/03/02 02:10:00;;;;;;;14.87;10.80;;;2.80;67.20;;;;;;5036423;28;20489;-46
2022/03/02 02:12:27;;;;;;;11.93;8.43;;;2.70;67.30;;;;;;5036433;28;20471;-46
2022/03/02 02:14:54;;;;;;;11.83;9.37;;;2.60;67.40;;;;;;5035968;28;20574;-47
2022/03/02 02:17:21;;;;;;;17.30;10.47;;;2.60;67.60;;;;;;5033767;28;20463;-47
2022/03/02 02:19:48;;;;;;;15.83;9.90;;;2.60;67.60;;;;;;5035877;28;20530;-47
2022/03/02 02:22:15;;;;;;;12.37;8.90;;;2.50;67.60;;;;;;5022436;28;20480;-47
2022/03/02 02:24:42;;;;;;;12.40;9.70;;;2.50;67.60;;;;;;5035638;28;20510;-46
2022/03/02 02:27:09;;;;;;;14.47;10.40;;;2.50;67.80;;;;;;5024709;28;20458;-47
2022/03/02 02:29:37;;;;;;;13.50;10.17;;;2.50;67.80;;;;;;5032495;28;20486;-46
2022/03/02 02:32:04;;;;;;;15.43;10.43;;;2.50;68.00;;;;;;5034351;28;20586;-47
2022/03/02 02:34:31;;;;;;;17.27;10.10;;;2.50;68.20;;;;;;5033855;28;20939;-46
2022/03/02 02:36:59;;;;;;;15.80;11.57;;;2.60;68.30;;;;;;5033803;28;20981;-46
2022/03/02 02:39:26;;;;;;;13.93;10.07;;;2.50;68.10;;;;;;5038418;28;20855;-47
2022/03/02 02:41:53;;;;;;;12.33;9.43;;;2.50;68.00;;;;;;5039989;28;20495;-46
2022/03/02 02:44:20;;;;;;;14.13;9.87;;;2.50;68.10;;;;;;5041792;28;20463;-47
2022/03/02 02:46:47;;;;;;;16.17;8.97;;;2.50;68.10;;;;;;5023559;28;20474;-47
2022/03/02 02:49:13;;;;;;;13.30;8.90;;;2.50;68.10;;;;;;5035411;28;20451;-46
2022/03/02 02:51:40;;;;;;;10.63;8.93;;;2.50;68.30;;;;;;5027689;28;20469;-46
2022/03/02 02:54:07;;;;;;;13.10;9.83;;;2.50;68.20;;;;;;5037131;28;20556;-47
2022/03/02 02:56:34;;;;;;;14.63;10.60;;;2.40;68.20;;;;;;5021554;28;20469;-47
2022/03/02 02:59:02;;;;;;;10.67;8.90;;;2.50;68.40;;;;;;5034457;28;20456;-46
2022/03/02 03:01:29;;;;;;;12.47;9.57;;;2.50;68.00;;;;;;5035441;28;20579;-46
2022/03/02 03:03:56;;;;;;;13.10;9.40;;;2.50;67.90;;;;;;5034422;28;20475;-47
2022/03/02 03:06:23;;;;;;;14.43;9.30;;;2.50;68.00;;;;;;5035697;28;20492;-47
2022/03/02 03:08:50;;;;;;;14.87;9.30;;;2.60;67.80;;;;;;5023286;28;20471;-45
2022/03/02 03:11:17;;;;;;;12.87;10.00;;;2.60;67.30;;;;;;5021187;28;20460;-44
2022/03/02 03:13:44;;;;;;;8.90;8.00;;;2.60;66.90;;;;;;5001758;28;20470;-45
2022/03/02 03:16:11;;;;;;;12.53;8.93;;;2.50;66.90;;;;;;5018761;28;20971;-45
2022/03/02 03:18:38;;;;;;;15.10;9.10;;;2.40;67.30;;;;;;5007846;28;20583;-45
2022/03/02 03:21:04;;;;;;;10.80;8.70;;;2.30;67.50;;;;;;5018150;28;20487;-45
2022/03/02 03:23:31;;;;;;;11.87;10.27;;;2.30;67.80;;;;;;5037533;28;20460;-45
2022/03/02 03:25:58;;;;;;;16.77;9.73;;;2.30;67.90;;;;;;5003998;28;20467;-45
2022/03/02 03:28:25;;;;;;;13.80;8.47;;;2.20;67.90;;;;;;5017068;28;20463;-45
2022/03/02 03:30:51;;;;;;;11.33;8.30;;;2.20;68.00;;;;;;5020571;28;20468;-45
2022/03/02 03:33:18;;;;;;;12.20;9.13;;;2.20;68.30;;;;;;5006107;28;20451;-45
2022/03/02 03:35:45;;;;;;;11.83;9.93;;;2.20;68.40;;;;;;5030769;28;20452;-44
2022/03/02 03:38:12;;;;;;;12.73;8.47;;;2.20;68.30;;;;;;5021347;28;20467;-44
2022/03/02 03:40:39;;;;;;;13.73;9.90;;;2.20;68.40;;;;;;5022233;28;20467;-45
2022/03/02 03:43:06;;;;;;;16.07;9.93;;;2.20;68.40;;;;;;5022830;28;20489;-45
2022/03/02 03:45:33;;;;;;;12.00;9.20;;;2.20;68.50;;;;;;5019598;28;20955;-45
2022/03/02 03:48:00;;;;;;;13.03;10.40;;;2.20;68.60;;;;;;5022372;28;20475;-45
2022/03/02 03:50:27;;;;;;;12.77;10.57;;;2.20;68.90;;;;;;5019053;28;20479;-44
2022/03/02 03:52:53;;;;;;;12.27;9.30;;;2.20;69.00;;;;;;5007900;28;20467;-45
2022/03/02 03:55:20;;;;;;;11.97;8.83;;;2.10;68.90;;;;;;5003288;28;20808;-45
2022/03/02 03:57:47;;;;;;;11.50;8.50;;;2.10;68.80;;;;;;5020546;28;20555;-45
2022/03/02 04:00:17;;;;;;;11.17;8.60;;;2.10;68.80;;;;;;5004227;28;20485;-45
2022/03/02 04:02:45;;;;;;;11.10;7.50;;;2.10;69.20;;;;;;5003370;28;20571;-45
2022/03/02 04:05:12;;;;;;;12.90;9.63;;;2.20;69.40;;;;;;5021793;28;20521;-45
2022/03/02 04:07:45;;;;;;;13.00;9.43;;;2.30;69.40;;;;;;5019364;28;20523;-45
2022/03/02 04:10:13;;;;;;;10.07;8.87;;;2.30;69.20;;;;;;5006701;28;20462;-44
2022/03/02 04:12:40;;;;;;;11.80;9.20;;;2.30;69.10;;;;;;5020256;28;20965;-44
2022/03/02 04:15:08;;;;;;;14.07;8.87;;;2.20;69.10;;;;;;5020473;28;20471;-44
2022/03/02 04:17:34;;;;;;;15.33;9.83;;;2.30;69.10;;;;;;5019182;28;20547;-45
2022/03/02 04:20:02;;;;;;;12.73;9.23;;;2.20;69.00;;;;;;5023567;28;20462;-45
2022/03/02 04:22:29;;;;;;;12.43;9.00;;;2.20;69.00;;;;;;5019256;28;20522;-45
2022/03/02 04:24:56;;;;;;;13.03;10.30;;;2.20;69.10;;;;;;5020889;28;20459;-45
2022/03/02 04:27:23;;;;;;;15.93;10.20;;;2.20;69.10;;;;;;5020918;28;20466;-45
2022/03/02 04:29:50;;;;;;;11.40;9.13;;;2.20;69.10;;;;;;5005877;28;20453;-45
2022/03/02 04:32:17;;;;;;;12.03;8.57;;;2.20;69.20;;;;;;5020034;28;20989;-45
2022/03/02 04:34:44;;;;;;;12.67;8.90;;;2.20;69.20;;;;;;5020328;28;20499;-45
2022/03/02 04:37:10;;;;;;;16.13;9.37;;;2.20;69.20;;;;;;5033272;28;20482;-45
2022/03/02 04:39:38;;;;;;;10.67;8.27;;;2.20;69.20;;;;;;5002348;28;20499;-45
2022/03/02 04:42:05;;;;;;;13.37;8.40;;;2.20;69.20;;;;;;5017583;28;20483;-45
2022/03/02 04:44:32;;;;;;;11.60;8.97;;;2.20;69.30;;;;;;5022973;28;20477;-45
2022/03/02 04:46:59;;;;;;;12.63;8.60;;;2.20;69.50;;;;;;5020405;28;20975;-45
2022/03/02 04:49:25;;;;;;;11.00;8.40;;;2.20;69.60;;;;;;5021329;28;21040;-45
2022/03/02 04:51:52;;;;;;;13.17;8.23;;;2.20;69.70;;;;;;5018568;28;20971;-45
2022/03/02 04:57:06;;;;;;;11.67;8.23;;;2.20;70.00;;;;;;5006683;28;20495;-44
2022/03/02 04:59:33;;;;;;;13.30;8.77;;;2.20;70.10;;;;;;5017665;28;20468;-45
2022/03/02 05:02:00;;;;;;;10.63;8.60;;;2.30;70.00;;;;;;5003702;28;20514;-45
2022/03/02 05:04:28;;;;;;;12.67;10.27;;;2.30;70.00;;;;;;5019525;28;20978;-45
2022/03/02 05:06:55;;;;;;;10.17;9.17;;;2.40;70.20;;;;;;5022783;28;20464;-45
2022/03/02 05:09:21;;;;;;;13.00;9.50;;;2.40;70.20;;;;;;5024381;28;20462;-45
2022/03/02 05:11:48;;;;;;;13.97;8.80;;;2.50;69.80;;;;;;5020075;28;20463;-45
2022/03/02 05:14:15;;;;;;;9.53;8.50;;;2.50;69.40;;;;;;5011706;28;20456;-45
2022/03/02 05:16:42;;;;;;;14.20;8.67;;;2.50;69.40;;;;;;5024068;28;20473;-45
2022/03/02 05:19:08;;;;;;;13.23;8.27;;;2.50;69.40;;;;;;5024315;28;20465;-45
2022/03/02 05:21:36;;;;;;;11.50;9.13;;;2.50;69.30;;;;;;5008412;28;20490;-45
2022/03/02 05:24:03;;;;;;;14.70;8.40;;;2.50;69.30;;;;;;5023728;28;20460;-45
2022/03/02 05:26:29;;;;;;;12.83;9.30;;;2.50;69.30;;;;;;5025416;28;20547;-45
2022/03/02 05:28:56;;;;;;;10.97;9.83;;;2.60;69.20;;;;;;5024303;28;20456;-45
2022/03/02 05:31:24;;;;;;;9.40;8.10;;;2.60;69.00;;;;;;5021562;28;20858;-45
2022/03/02 05:33:51;;;;;;;11.00;8.23;;;2.60;69.30;;;;;;5024774;28;20466;-45
2022/03/02 05:36:24;;;;;;;9.67;7.70;;;2.60;69.30;;;;;;5023938;28;20470;-45
2022/03/02 05:38:52;;;;;;;10.67;8.30;;;2.70;69.20;;;;;;5023341;28;20473;-45
2022/03/02 05:41:20;;;;;;;9.93;8.83;;;2.70;68.90;;;;;;5007977;28;20964;-45
2022/03/02 05:43:48;;;;;;;10.87;8.63;;;2.80;67.80;;;;;;5025671;28;20956;-45
2022/03/02 05:46:15;;;;;;;10.50;6.97;;;2.80;67.40;;;;;;5024446;28;20816;-45
2022/03/02 05:48:43;;;;;;;8.90;7.10;;;2.80;66.50;;;;;;5022938;28;21038;-45
2022/03/02 05:51:11;;;;;;;7.67;6.30;;;2.90;65.70;;;;;;5023598;28;20711;-45
2022/03/02 05:53:38;;;;;;;12.47;8.07;;;2.90;64.90;;;;;;5010188;28;20995;-45
2022/03/02 05:56:06;;;;;;;9.83;6.97;;;2.90;64.40;;;;;;5011182;28;20953;-45
2022/03/02 05:58:33;;;;;;;14.63;8.13;;;2.90;64.20;;;;;;5028927;28;20479;-45
2022/03/02 06:01:00;;;;;;;9.70;7.33;;;2.90;64.00;;;;;;5013747;28;20465;-45
2022/03/02 06:03:28;;;;;;;10.83;7.80;;;3.00;63.70;;;;;;5022327;28;20587;-45
2022/03/02 06:05:56;;;;;;;10.27;7.17;;;3.00;63.30;;;;;;5022647;28;20809;-45
2022/03/02 06:08:23;;;;;;;8.00;7.03;;;3.10;62.70;;;;;;5023630;28;20570;-45
2022/03/02 06:10:50;;;;;;;8.80;6.70;;;3.20;62.60;;;;;;5021499;28;20474;-45
2022/03/02 06:13:17;;;;;;;9.00;7.03;;;3.20;62.80;;;;;;5022814;28;20462;-45
2022/03/02 06:15:44;;;;;;;9.50;6.87;;;3.20;62.60;;;;;;5008609;28;20548;-45
2022/03/02 06:18:11;;;;;;;7.90;7.10;;;3.20;62.00;;;;;;5022102;28;20460;-45
2022/03/02 06:20:40;;;;;;;10.93;7.40;;;3.20;61.50;;;;;;5020918;28;20459;-45
2022/03/02 06:23:07;;;;;;;10.97;8.00;;;3.30;61.30;;;;;;5021870;28;20475;-45
2022/03/02 06:25:34;;;;;;;9.23;7.20;;;3.30;61.40;;;;;;5022829;28;20517;-45
2022/03/02 06:28:02;;;;;;;10.83;7.00;;;3.30;61.40;;;;;;5024296;28;20550;-45
2022/03/02 06:30:29;;;;;;;10.63;7.80;;;3.30;61.30;;;;;;5024742;28;20824;-45
2022/03/02 06:32:56;;;;;;;7.30;6.30;;;3.40;60.80;;;;;;5006473;28;20498;-45
2022/03/02 06:35:23;;;;;;;9.53;7.30;;;3.40;60.70;;;;;;5021054;28;20466;-45
2022/03/02 06:37:50;;;;;;;7.17;6.33;;;3.40;61.00;;;;;;5021176;28;20483;-45
2022/03/02 06:40:16;;;;;;;8.10;7.13;;;3.50;60.60;;;;;;5020881;28;20467;-44
2022/03/02 06:42:49;;;;;;;8.67;7.10;;;3.50;60.60;;;;;;5021671;28;22013;-44
2022/03/02 06:45:26;;;;;;;9.00;6.43;;;3.50;60.10;;;;;;5021264;28;20482;-44
2022/03/02 06:48:03;;;;;;;8.53;7.43;;;3.50;60.30;;;;;;5032256;28;20566;-45
2022/03/02 06:50:34;;;;;;;10.17;7.93;;;3.50;60.10;;;;;;5022127;28;20470;-45
2022/03/02 06:53:02;;;;;;;10.27;7.23;;;3.50;60.10;;;;;;5021801;28;20469;-45
2022/03/02 06:55:30;;;;;;;7.70;6.73;;;3.60;60.50;;;;;;5034427;28;20971;-45
2022/03/02 06:58:00;;;;;;;11.80;6.83;;;3.60;60.50;;;;;;5019943;28;20467;-45
2022/03/02 07:00:27;;;;;;;9.47;7.60;;;3.60;60.50;;;;;;5021283;28;20832;-45
2022/03/02 07:03:11;;;;;;;8.77;7.80;;;3.70;60.60;;;;;;5021458;28;20479;-45
2022/03/02 07:05:39;;;;;;;11.40;7.10;;;3.70;60.40;;;;;;5023933;28;20479;-45
2022/03/02 07:08:08;;;;;;;9.47;6.77;;;3.70;60.20;;;;;;5017085;28;20448;-45
2022/03/02 07:10:36;;;;;;;9.50;6.83;;;3.80;60.00;;;;;;5019821;28;20463;-45
2022/03/02 07:13:05;;;;;;;6.80;6.10;;;3.80;60.10;;;;;;5022207;28;20917;-45
2022/03/02 07:15:34;;;;;;;10.00;7.50;;;3.80;60.30;;;;;;5024003;28;20493;-45
2022/03/02 07:18:02;;;;;;;10.17;7.13;;;3.80;60.50;;;;;;5001564;28;20990;-45
2022/03/02 07:20:30;;;;;;;8.53;6.23;;;3.90;60.30;;;;;;5023504;28;20844;-45
2022/03/02 07:23:00;;;;;;;9.00;7.10;;;3.90;59.70;;;;;;5024045;28;20487;-45
2022/03/02 07:25:29;;;;;;;11.03;7.53;;;3.90;58.90;;;;;;5035547;28;20464;-45
2022/03/02 07:27:57;;;;;;;9.63;6.33;;;4.00;58.80;;;;;;5020542;28;20470;-45
2022/03/02 07:30:25;;;;;;;10.07;7.53;;;4.00;58.70;;;;;;5035687;28;20542;-45
2022/03/02 07:32:55;;;;;;;8.10;6.80;;;4.10;58.50;;;;;;5023640;28;20505;-45
2022/03/02 07:35:24;;;;;;;7.90;6.70;;;4.20;58.60;;;;;;5004717;28;21018;-45
2022/03/02 07:37:55;;;;;;;10.00;7.73;;;4.20;58.40;;;;;;5023413;28;20983;-45
2022/03/02 07:40:21;;;;;;;8.53;7.40;;;4.30;58.20;;;;;;5019452;28;20580;-45
2022/03/02 07:42:49;;;;;;;9.10;7.60;;;4.30;58.40;;;;;;5004474;28;20517;-46
2022/03/02 07:45:17;;;;;;;15.83;8.63;;;4.40;58.60;;;;;;5018866;28;20542;-45
2022/03/02 07:47:44;;;;;;;16.90;8.70;;;4.40;58.90;;;;;;5005853;28;21013;-45
2022/03/02 07:50:13;;;;;;;15.73;10.37;;;4.50;58.80;;;;;;5021553;28;20459;-45
2022/03/02 07:52:49;;;;;;;15.00;9.00;;;4.50;57.80;;;;;;5016017;28;20480;-45
2022/03/02 07:55:17;;;;;;;11.10;7.53;;;4.50;56.10;;;;;;5013660;28;20470;-45
2022/03/02 07:57:49;;;;;;;9.80;8.00;;;4.60;56.10;;;;;;5021454;28;20451;-45
2022/03/02 08:00:16;;;;;;;8.40;7.40;;;4.60;55.80;;;;;;5020598;28;20471;-45
2022/03/02 08:02:46;;;;;;;9.73;7.13;;;4.60;55.60;;;;;;5017803;28;20486;-45
2022/03/02 08:05:13;;;;;;;11.63;7.60;;;4.60;55.50;;;;;;5016035;28;20571;-45
2022/03/02 08:07:39;;;;;;;9.83;7.57;;;4.70;56.20;;;;;;5021995;28;20956;-45
2022/03/02 08:10:07;;;;;;;17.73;8.63;;;4.70;56.40;;;;;;5018586;28;20509;-45
2022/03/02 08:12:35;;;;;;;7.93;7.10;;;4.80;55.60;;;;;;5018073;28;21157;-45
2022/03/02 08:15:03;;;;;;;8.90;7.20;;;4.80;54.50;;;;;;5019156;28;20567;-45
2022/03/02 08:17:30;;;;;;;15.33;7.33;;;4.80;54.10;;;;;;5017936;28;20587;-45
2022/03/02 08:19:57;;;;;;;9.17;7.33;;;4.80;54.20;;;;;;5019211;28;21256;-45
2022/03/02 08:22:24;;;;;;;10.90;7.53;;;4.90;54.20;;;;;;5016789;28;20488;-45
2022/03/02 08:25:07;;;;;;;10.03;8.20;;;4.90;54.40;;;;;;4995344;28;20955;-45
2022/03/02 08:27:34;;;;;;;10.60;7.77;;;5.00;54.20;;;;;;5004785;28;20472;-45
2022/03/02 08:30:05;;;;;;;9.00;7.30;;;5.10;54.40;;;;;;5018634;28;20750;-45
2022/03/02 08:32:35;;;;;;;10.60;7.73;;;5.00;53.40;;;;;;5009190;28;20467;-45
2022/03/02 08:35:02;;;;;;;9.03;7.47;;;5.10;53.80;;;;;;5017034;28;20575;-44
2022/03/02 08:37:31;;;;;;;10.80;7.93;;;5.20;54.10;;;;;;5014255;28;20459;-44
2022/03/02 08:39:59;;;;;;;8.90;6.77;;;5.20;54.20;;;;;;5016305;28;20467;-45
2022/03/02 08:42:26;;;;;;;11.40;7.80;;;5.30;54.00;;;;;;5016246;28;21015;-45
2022/03/02 08:44:54;;;;;;;11.67;7.67;;;5.40;53.60;;;;;;5004427;28;20539;-45
2022/03/02 08:47:24;;;;;;;10.13;7.83;;;5.40;53.20;;;;;;5013599;28;20989;-44
2022/03/02 08:49:54;;;;;;;9.57;7.20;;;5.50;53.70;;;;;;5020834;28;20447;-44
2022/03/02 08:52:29;;;;;;;8.93;7.40;;;5.50;52.80;;;;;;5015621;28;20467;-44
2022/03/02 08:54:56;;;;;;;10.53;7.53;;;5.50;53.00;;;;;;5015130;28;20976;-45
2022/03/02 08:57:24;;;;;;;12.07;7.50;;;5.60;53.40;;;;;;5018182;28;20513;-45
2022/03/02 08:59:53;;;;;;;10.23;8.57;;;5.60;53.80;;;;;;5016614;28;20969;-45
2022/03/02 09:02:24;;;;;;;10.00;7.13;;;5.60;53.40;;;;;;5018148;28;20558;-45
2022/03/02 09:04:53;;;;;;;8.10;6.30;;;5.70;52.80;;;;;;5016882;28;20460;-45
2022/03/02 09:07:19;;;;;;;10.77;8.07;;;5.70;51.90;;;;;;4996174;28;20464;-45
2022/03/02 09:09:46;;;;;;;10.93;7.70;;;5.70;51.80;;;;;;5017218;28;20448;-45
2022/03/02 09:12:15;;;;;;;12.20;7.10;;;5.70;52.20;;;;;;5018424;28;20459;-45
2022/03/02 09:14:42;;;;;;;9.70;7.53;;;5.80;52.10;;;;;;5007808;28;20436;-45
2022/03/02 09:17:10;;;;;;;9.73;7.53;;;5.80;52.20;;;;;;5031450;28;20876;-45
2022/03/02 09:19:39;;;;;;;9.03;7.40;;;5.80;51.80;;;;;;5015520;28;20698;-45
2022/03/02 09:22:05;;;;;;;12.07;7.90;;;5.90;51.70;;;;;;5016325;28;20459;-45
2022/03/02 09:24:34;;;;;;;8.70;7.10;;;5.90;51.70;;;;;;5016256;28;20482;-45
2022/03/02 09:27:02;;;;;;;7.90;6.47;;;5.90;51.90;;;;;;5019143;28;20803;-45
2022/03/02 09:29:31;;;;;;;8.50;6.63;;;5.90;51.90;;;;;;5022791;28;20565;-45
2022/03/02 09:31:59;;;;;;;8.67;6.50;;;5.80;52.00;;;;;;5015322;28;20452;-45
2022/03/02 09:34:29;;;;;;;7.77;6.40;;;5.90;53.20;;;;;;5017927;28;20460;-45
2022/03/02 09:36:59;;;;;;;7.93;7.07;;;6.00;53.60;;;;;;5019346;28;20797;-45
2022/03/02 09:39:26;;;;;;;10.30;7.57;;;6.00;53.20;;;;;;5007130;28;20456;-45
2022/03/02 09:42:11;;;;;;;13.03;7.37;;;6.00;53.20;;;;;;5021636;28;20509;-45
2022/03/02 09:44:44;;;;;;;9.20;7.67;;;6.00;52.60;;;;;;5020080;28;21024;-45
2022/03/02 09:47:20;;;;;;;8.57;7.53;;;5.90;52.40;;;;;;5020986;28;21040;-45
2022/03/02 09:49:52;;;;;;;8.47;7.60;;;5.90;52.20;;;;;;5020412;28;20451;-45
2022/03/02 09:52:19;;;;;;;8.50;7.03;;;5.90;52.00;;;;;;5034263;28;20459;-45
2022/03/02 09:54:52;;;;;;;8.77;6.83;;;6.00;53.10;;;;;;5008756;28;20817;-45
2022/03/02 09:57:20;;;;;;;8.80;6.80;;;6.00;53.60;;;;;;5018171;28;20542;-45
2022/03/02 09:59:52;;;;;;;9.73;8.13;;;6.00;53.70;;;;;;5037878;28;20941;-45
2022/03/02 10:02:40;;;;;;;8.83;7.30;;;6.00;53.30;;;;;;5004992;28;20491;-45
2022/03/02 10:05:15;;;;;;;11.70;7.50;;;6.10;53.10;;;;;;5021375;28;20627;-45
2022/03/02 10:07:52;;;;;;;10.73;8.23;;;6.10;52.40;;;;;;5021601;28;20905;-45
2022/03/02 10:10:23;;;;;;;7.87;7.10;;;6.10;52.20;;;;;;5023234;28;20458;-45
2022/03/02 10:12:51;;;;;;;12.50;8.17;;;6.00;52.30;;;;;;5024703;28;20463;-45
2022/03/02 10:15:19;;;;;;;8.20;7.40;;;5.90;51.70;;;;;;5023871;28;20452;-45
2022/03/02 10:17:48;;;;;;;12.53;7.90;;;6.00;52.10;;;;;;5019479;28;20543;-45
2022/03/02 10:20:21;;;;;;;8.37;6.63;;;6.00;52.40;;;;;;5022344;28;20523;-45
2022/03/02 10:23:25;;;;;;;8.33;6.37;;;6.10;52.60;;;;;;5024663;28;20489;-45
2022/03/02 10:26:04;;;;;;;11.60;7.07;;;6.20;52.60;;;;;;5024040;28;20453;-45
2022/03/02 10:28:49;;;;;;;8.97;8.07;;;6.20;52.20;;;;;;5021861;28;20454;-45
2022/03/02 10:31:32;;;;;;;11.43;8.33;;;6.30;52.00;;;;;;5022918;28;20459;-45
2022/03/02 10:34:22;;;;;;;10.33;7.47;;;6.40;52.40;;;;;;5024301;28;20459;-45
2022/03/02 10:37:09;;;;;;;9.90;7.90;;;6.40;52.40;;;;;;5022564;28;20448;-45
2022/03/02 10:39:50;;;;;;;10.20;8.13;;;6.50;52.20;;;;;;5022873;28;20451;-45
2022/03/02 10:42:25;;;;;;;13.60;7.87;;;6.50;52.10;;;;;;5033904;28;20448;-45
2022/03/02 10:45:13;;;;;;;10.33;7.97;;;6.60;51.60;;;;;;5024138;28;20525;-45
2022/03/02 10:48:02;;;;;;;10.83;7.77;;;6.60;52.10;;;;;;5024843;28;20459;-45
2022/03/02 10:50:34;;;;;;;9.37;7.30;;;6.60;50.90;;;;;;5022291;28;20451;-45
2022/03/02 10:53:04;;;;;;;12.60;8.53;;;6.50;50.90;;;;;;5035572;28;20444;-45
2022/03/02 10:55:31;;;;;;;9.17;7.53;;;6.50;51.10;;;;;;5032728;28;20451;-45
2022/03/02 10:58:04;;;;;;;13.60;8.20;;;6.50;51.00;;;;;;5022153;28;20512;-45
2022/03/02 11:00:31;;;;;;;9.87;8.20;;;6.60;50.80;;;;;;5022596;28;20555;-45
2022/03/02 11:02:59;;;;;;;11.33;8.60;;;6.60;50.50;;;;;;5020496;28;20490;-45
2022/03/02 11:05:30;;;;;;;10.83;8.53;;;6.50;50.30;;;;;;5024074;28;20444;-45
2022/03/02 11:07:57;;;;;;;9.93;7.63;;;6.50;50.40;;;;;;5022182;28;20529;-45
2022/03/02 11:10:33;;;;;;;11.33;9.03;;;6.50;50.10;;;;;;5023898;28;20960;-45
2022/03/02 11:13:03;;;;;;;12.60;8.03;;;6.50;50.30;;;;;;5019109;28;20451;-45
2022/03/02 11:15:45;;;;;;;8.70;7.50;;;6.60;50.30;;;;;;5019992;28;20458;-45
2022/03/02 11:18:16;;;;;;;8.87;7.57;;;6.60;49.90;;;;;;5025812;28;20465;-45
2022/03/02 11:21:00;;;;;;;9.40;8.17;;;6.60;49.80;;;;;;5023867;28;20455;-45
2022/03/02 11:23:32;;;;;;;15.30;8.27;;;6.70;50.00;;;;;;5021206;28;20488;-45
2022/03/02 11:26:08;;;;;;;10.13;7.60;;;6.70;49.60;;;;;;5021631;28;20473;-45
2022/03/02 11:28:36;;;;;;;16.73;8.40;;;6.60;49.60;;;;;;5020336;28;20463;-45
2022/03/02 11:31:06;;;;;;;14.67;9.23;;;6.70;49.80;;;;;;5022555;28;20448;-45
2022/03/02 11:33:35;;;;;;;12.20;8.47;;;6.80;50.40;;;;;;5035380;28;20950;-45
2022/03/02 11:36:11;;;;;;;10.20;8.63;;;6.90;50.20;;;;;;5017978;28;20444;-45
2022/03/02 11:38:44;;;;;;;12.43;7.77;;;7.10;49.60;;;;;;5012454;28;20488;-45
2022/03/02 11:41:13;;;;;;;11.13;8.10;;;7.10;49.00;;;;;;5018711;28;20455;-45
2022/03/02 11:43:41;;;;;;;11.20;9.43;;;7.30;48.80;;;;;;5018791;28;20479;-45
2022/03/02 11:46:10;;;;;;;8.97;8.07;;;7.40;48.30;;;;;;5003127;28;20848;-45
2022/03/02 11:48:41;;;;;;;10.43;8.23;;;7.60;48.40;;;;;;5015917;28;20459;-45
2022/03/02 11:51:08;;;;;;;9.40;8.10;;;7.60;47.70;;;;;;5021960;28;20578;-45
2022/03/02 11:53:40;;;;;;;12.20;8.93;;;7.60;47.40;;;;;;5018273;28;20556;-45
2022/03/02 11:56:09;;;;;;;9.53;7.77;;;7.80;47.90;;;;;;5018894;28;20455;-45
2022/03/02 11:58:54;;;;;;;16.20;8.60;;;8.00;47.90;;;;;;5021317;28;20952;-45
2022/03/02 12:01:53;;;;;;;11.20;8.83;;;8.20;47.10;;;;;;5021425;28;20439;-45
2022/03/02 12:04:31;;;;;;;10.77;8.90;;;8.30;46.80;;;;;;5024372;28;20753;-45
2022/03/02 12:06:58;;;;;;;12.80;9.33;;;8.40;46.60;;;;;;5022189;28;20463;-45
2022/03/02 12:09:30;;;;;;;14.20;9.50;;;8.60;46.40;;;;;;5001202;28;20494;-45
2022/03/02 12:12:07;;;;;;;11.30;8.43;;;8.70;46.10;;;;;;5021993;28;20452;-45
2022/03/02 12:14:56;;;;;;;13.07;9.67;;;8.90;45.90;;;;;;5022007;28;20546;-45
2022/03/02 12:17:29;;;;;;;12.33;10.20;;;9.00;46.00;;;;;;5018680;28;20543;-45
2022/03/02 12:19:58;;;;;;;11.70;8.57;;;9.00;45.70;;;;;;5008068;28;20462;-45
2022/03/02 12:22:40;;;;;;;12.47;9.07;;;9.00;45.40;;;;;;5004521;28;20447;-45
2022/03/02 12:25:10;;;;;;;14.43;9.20;;;9.00;45.70;;;;;;5019092;28;20935;-45
2022/03/02 12:27:37;;;;;;;11.23;9.30;;;9.10;45.80;;;;;;5019927;28;20771;-46
2022/03/02 12:30:08;;;;;;;9.90;8.67;;;9.30;46.10;;;;;;5001832;28;20461;-46
2022/03/02 12:32:38;;;;;;;10.20;8.20;;;9.40;46.30;;;;;;5020133;28;20448;-45
2022/03/02 12:35:07;;;;;;;11.90;8.40;;;9.50;46.90;;;;;;5023312;28;20443;-46
2022/03/02 12:37:35;;;;;;;11.90;9.60;;;9.60;45.70;;;;;;5020329;28;20455;-46
2022/03/02 12:40:06;;;;;;;11.90;9.00;;;9.60;45.30;;;;;;5023081;28;20974;-46
2022/03/02 12:42:34;;;;;;;10.37;9.10;;;9.70;45.10;;;;;;5006573;28;20451;-46
2022/03/02 12:45:01;;;;;;;10.53;9.40;;;9.80;45.90;;;;;;5018917;28;20630;-46
2022/03/02 12:47:30;;;;;;;11.20;8.73;;;9.90;45.40;;;;;;5021160;28;20839;-46
2022/03/02 12:49:58;;;;;;;12.70;9.03;;;10.00;44.70;;;;;;5022055;28;20450;-45
2022/03/02 12:52:28;;;;;;;14.23;9.23;;;10.10;44.60;;;;;;5011194;28;20479;-46
2022/03/02 12:54:56;;;;;;;11.97;9.17;;;10.20;43.50;;;;;;5022314;28;20455;-46
2022/03/02 12:57:25;;;;;;;13.07;8.60;;;10.20;43.20;;;;;;5021237;28;20852;-46
2022/03/02 12:59:54;;;;;;;11.67;10.07;;;10.30;43.00;;;;;;5021432;28;20451;-46
2022/03/02 13:02:23;;;;;;;9.73;8.73;;;10.50;42.80;;;;;;5020140;28;20455;-45